Time;durP1;ratioP1;P1;durP2;ratioP2;P2;SDS_P1;SDS_P2;PMS_P1;PMS_P2;Temp;Humidity;BMP_temperature;BMP_pressure;BME280_temperature;BME280_humidity;BME280_pressure;Samples;Min_cycle;Max_cycle;Signal;HPM_P1;HPM_P2
2021/03/06 00:01:28;;;;;;;6.10;3.10;;;-5.70;96.30;;;;;;5012191;28;20657;-70
2021/03/06 00:03:53;;;;;;;5.20;2.90;;;-5.70;96.30;;;;;;5011018;28;20177;-71
2021/03/06 00:06:19;;;;;;;5.90;3.60;;;-5.70;96.30;;;;;;5012446;28;20172;-70
2021/03/06 00:08:44;;;;;;;8.13;3.80;;;-5.70;96.30;;;;;;5011704;28;20271;-70
2021/03/06 00:11:10;;;;;;;5.60;3.50;;;-5.70;96.30;;;;;;5012101;28;20173;-71
2021/03/06 00:13:36;;;;;;;8.20;3.73;;;-5.80;96.30;;;;;;5012336;28;20173;-71
2021/03/06 00:16:02;;;;;;;5.03;3.20;;;-5.90;96.30;;;;;;5012350;28;20169;-71
2021/03/06 00:18:28;;;;;;;4.70;3.03;;;-5.80;96.30;;;;;;5011649;28;20464;-70
2021/03/06 00:20:53;;;;;;;4.60;3.07;;;-5.70;96.30;;;;;;5012304;28;20423;-70
2021/03/06 00:23:19;;;;;;;5.20;3.30;;;-5.80;96.30;;;;;;5011941;28;20177;-70
2021/03/06 00:25:44;;;;;;;5.40;3.33;;;-5.80;96.30;;;;;;5012249;28;20173;-70
2021/03/06 00:28:10;;;;;;;6.33;3.70;;;-5.90;96.30;;;;;;5011581;28;20196;-70
2021/03/06 00:30:36;;;;;;;9.07;3.90;;;-6.00;96.30;;;;;;5012248;28;20177;-70
2021/03/06 00:33:02;;;;;;;4.33;2.97;;;-6.00;96.30;;;;;;5011913;28;20636;-70
2021/03/06 00:35:28;;;;;;;7.73;3.50;;;-5.90;96.30;;;;;;5011991;28;20257;-71
2021/03/06 00:37:53;;;;;;;7.17;3.40;;;-5.80;96.30;;;;;;5011200;28;20904;-70
2021/03/06 00:40:19;;;;;;;7.90;3.77;;;-5.80;96.30;;;;;;5012114;28;20161;-70
2021/03/06 00:42:44;;;;;;;7.37;3.50;;;-5.70;96.30;;;;;;5013786;28;20177;-70
2021/03/06 00:45:10;;;;;;;7.00;3.67;;;-5.80;96.30;;;;;;5015929;28;20170;-70
2021/03/06 00:47:36;;;;;;;7.20;3.70;;;-6.00;96.30;;;;;;5015348;28;20169;-70
2021/03/06 00:50:11;;;;;;;5.40;3.90;;;-6.10;96.30;;;;;;5015883;28;20260;-70
2021/03/06 00:52:37;;;;;;;4.57;3.00;;;-6.20;96.30;;;;;;5015716;28;20516;-70
2021/03/06 00:55:03;;;;;;;6.17;3.57;;;-6.20;96.30;;;;;;5015773;28;20435;-70
2021/03/06 00:57:28;;;;;;;6.80;3.60;;;-6.20;96.30;;;;;;5015226;28;20179;-70
2021/03/06 00:59:54;;;;;;;5.17;3.30;;;-6.20;96.30;;;;;;5015748;28;20858;-70
2021/03/06 05:00:13;;;;;;;4.27;3.10;;;-7.30;96.30;;;;;;6108935;22;20395;-73
2021/03/06 05:02:39;;;;;;;6.77;3.60;;;-7.30;96.30;;;;;;4989600;28;20449;-72
2021/03/06 05:05:08;;;;;;;5.07;4.13;;;-7.30;96.30;;;;;;4992227;28;20416;-72
2021/03/06 05:07:34;;;;;;;3.30;2.70;;;-7.30;96.30;;;;;;4991587;28;20221;-74
2021/03/06 05:10:00;;;;;;;3.53;3.13;;;-7.40;96.30;;;;;;4992116;28;20412;-74
2021/03/06 05:12:25;;;;;;;6.97;3.30;;;-7.50;96.30;;;;;;4992247;28;20512;-72
2021/03/06 05:14:51;;;;;;;5.60;2.93;;;-7.50;96.30;;;;;;4992934;28;20621;-71
2021/03/06 05:17:16;;;;;;;6.47;3.43;;;-7.60;96.30;;;;;;4991670;28;20209;-71
2021/03/06 05:19:42;;;;;;;4.83;3.27;;;-7.60;96.30;;;;;;4992302;28;20233;-71
2021/03/06 05:22:07;;;;;;;6.43;2.90;;;-7.60;96.30;;;;;;4992183;28;20202;-70
2021/03/06 05:24:32;;;;;;;4.47;3.17;;;-7.60;96.30;;;;;;4992084;28;20174;-71
2021/03/06 05:27:01;;;;;;;5.40;3.00;;;-7.60;96.30;;;;;;4991641;28;20195;-71
2021/03/06 05:29:28;;;;;;;6.00;3.87;;;-7.60;96.30;;;;;;4994763;28;20212;-71
2021/03/06 05:31:53;;;;;;;3.00;2.63;;;-7.60;96.30;;;;;;4995188;28;20940;-71
2021/03/06 05:34:20;;;;;;;6.83;3.43;;;-7.60;96.30;;;;;;4995443;28;20420;-70
2021/03/06 05:36:45;;;;;;;4.60;3.40;;;-7.60;96.30;;;;;;4995513;28;20206;-71
2021/03/06 05:39:11;;;;;;;6.20;3.37;;;-7.60;96.30;;;;;;4994844;28;20452;-71
2021/03/06 05:41:37;;;;;;;6.37;3.80;;;-7.60;96.30;;;;;;4995423;28;20196;-71
2021/03/06 05:44:03;;;;;;;5.50;3.90;;;-7.60;96.30;;;;;;4995166;28;20229;-71
2021/03/06 05:46:29;;;;;;;4.57;2.70;;;-7.50;96.30;;;;;;4995362;28;20432;-71
2021/03/06 05:48:55;;;;;;;6.97;3.97;;;-7.40;96.30;;;;;;4996589;28;20181;-70
2021/03/06 05:51:21;;;;;;;8.30;5.10;;;-7.20;96.30;;;;;;4995159;28;20516;-70
2021/03/06 05:53:49;;;;;;;8.83;5.07;;;-6.90;96.30;;;;;;4995409;28;20680;-71
2021/03/06 05:56:15;;;;;;;5.90;4.10;;;-6.40;96.30;;;;;;4995282;28;20409;-71
2021/03/06 05:58:44;;;;;;;4.20;3.47;;;-5.80;96.30;;;;;;4994637;28;20455;-71
2021/03/06 06:01:13;;;;;;;6.23;3.87;;;-5.20;96.30;;;;;;4993448;28;20205;-71
2021/03/06 06:03:41;;;;;;;6.80;4.57;;;-4.40;96.30;;;;;;4993553;28;20502;-71
2021/03/06 06:06:07;;;;;;;8.60;4.47;;;-3.80;96.30;;;;;;4994298;28;20412;-71
2021/03/06 06:08:34;;;;;;;5.20;3.30;;;-3.30;96.30;;;;;;4994371;28;20419;-71
2021/03/06 06:11:00;;;;;;;6.80;3.70;;;-2.80;96.30;;;;;;4994854;28;20471;-71
2021/03/06 06:13:25;;;;;;;6.10;3.90;;;-2.50;96.30;;;;;;4994414;28;20408;-71
2021/03/06 06:15:55;;;;;;;5.73;4.40;;;-1.80;96.30;;;;;;4994423;28;20224;-71
2021/03/06 06:18:21;;;;;;;5.13;3.30;;;-1.20;96.30;;;;;;4993789;28;20568;-72
2021/03/06 06:20:47;;;;;;;5.33;3.53;;;-0.30;96.30;;;;;;4994135;28;20444;-71
2021/03/06 06:23:14;;;;;;;6.73;3.73;;;-0.30;96.30;;;;;;4994344;28;20405;-72
2021/03/06 06:25:40;;;;;;;3.90;2.90;;;0.40;96.00;;;;;;4994783;28;20165;-73
2021/03/06 06:28:06;;;;;;;6.40;3.00;;;0.90;95.30;;;;;;4993552;28;20404;-72
2021/03/06 06:30:33;;;;;;;4.30;3.33;;;1.10;92.60;;;;;;4994063;28;21002;-73
2021/03/06 06:32:59;;;;;;;4.40;3.50;;;1.50;91.90;;;;;;4994386;28;20413;-73
2021/03/06 06:35:25;;;;;;;5.20;3.27;;;1.90;89.90;;;;;;4972912;28;20897;-73
2021/03/06 06:38:05;;;;;;;5.93;3.20;;;1.90;90.90;;;;;;4973752;28;20201;-73
2021/03/06 06:40:33;;;;;;;4.30;3.27;;;2.70;87.50;;;;;;4972920;28;20205;-73
2021/03/06 06:42:59;;;;;;;3.50;2.80;;;3.30;84.80;;;;;;4974449;28;20428;-73
2021/03/06 06:45:34;;;;;;;4.70;3.57;;;3.50;83.50;;;;;;4971553;28;20413;-73
2021/03/06 06:48:09;;;;;;;7.20;2.80;;;4.00;83.10;;;;;;4963533;28;20922;-73
2021/03/06 06:50:34;;;;;;;6.10;3.30;;;4.40;80.40;;;;;;4965538;28;20433;-73
2021/03/06 06:53:00;;;;;;;3.23;2.80;;;4.30;81.50;;;;;;4962340;28;20498;-73
2021/03/06 06:55:42;;;;;;;5.00;3.90;;;3.90;82.40;;;;;;4965133;28;20202;-73
2021/03/06 06:58:07;;;;;;;3.83;2.80;;;4.30;81.00;;;;;;4965184;28;20208;-73
2021/03/06 07:00:34;;;;;;;3.97;2.77;;;5.00;78.60;;;;;;4968721;28;20552;-73
2021/03/06 07:03:04;;;;;;;5.10;3.10;;;5.50;77.00;;;;;;4974215;28;20178;-71
2021/03/06 07:05:35;;;;;;;7.73;2.80;;;5.60;77.40;;;;;;4973720;28;20433;-71
2021/03/06 07:08:03;;;;;;;8.13;3.00;;;6.10;76.70;;;;;;4973713;28;20448;-71
2021/03/06 07:10:40;;;;;;;5.07;3.13;;;6.50;74.50;;;;;;4973924;28;20480;-71
2021/03/06 07:13:08;;;;;;;9.10;3.30;;;6.70;75.30;;;;;;4973642;28;20421;-71
2021/03/06 07:15:35;;;;;;;3.87;3.03;;;6.70;73.80;;;;;;4981154;28;20516;-71
2021/03/06 07:18:06;;;;;;;4.50;3.37;;;6.90;72.80;;;;;;4993266;28;20448;-71
2021/03/06 07:20:35;;;;;;;3.83;2.97;;;7.50;71.60;;;;;;4994143;28;20950;-71
2021/03/06 07:23:14;;;;;;;5.63;3.47;;;7.00;71.60;;;;;;4994245;28;20918;-71
2021/03/06 07:25:44;;;;;;;4.10;3.20;;;7.00;71.50;;;;;;4957122;29;20422;-72
2021/03/06 07:28:10;;;;;;;3.40;3.10;;;6.90;72.00;;;;;;4956896;28;20454;-71
2021/03/06 07:30:36;;;;;;;5.13;3.67;;;7.30;71.00;;;;;;4956738;28;20440;-72
2021/03/06 07:33:07;;;;;;;4.67;4.00;;;7.30;71.00;;;;;;4956877;28;20193;-71
2021/03/06 07:35:36;;;;;;;5.40;3.77;;;7.60;70.90;;;;;;4972859;28;20182;-71
2021/03/06 07:38:04;;;;;;;3.90;2.90;;;7.80;69.70;;;;;;4957447;28;20434;-71
2021/03/06 07:40:32;;;;;;;4.83;3.50;;;7.00;72.30;;;;;;4957709;28;20518;-71
2021/03/06 07:42:59;;;;;;;4.80;3.17;;;7.50;70.90;;;;;;4957560;28;20418;-71
2021/03/06 07:45:27;;;;;;;4.20;3.00;;;7.40;70.80;;;;;;4956450;28;20419;-71
2021/03/06 07:48:12;;;;;;;5.13;3.10;;;6.20;72.40;;;;;;4956304;28;20453;-70
2021/03/06 07:50:40;;;;;;;5.37;3.00;;;4.80;78.20;;;;;;4972021;28;20448;-70
2021/03/06 07:53:07;;;;;;;4.47;2.60;;;3.60;81.30;;;;;;4975668;28;20425;-70
2021/03/06 07:55:34;;;;;;;4.43;3.37;;;2.70;85.50;;;;;;4975835;28;20413;-70
2021/03/06 07:58:11;;;;;;;5.70;3.60;;;2.10;86.30;;;;;;4975889;28;20468;-70
2021/03/06 08:00:38;;;;;;;5.10;2.50;;;1.40;88.20;;;;;;4977401;28;20449;-70
2021/03/06 08:03:24;;;;;;;5.70;3.00;;;1.00;90.90;;;;;;4974516;28;20422;-70
2021/03/06 08:05:52;;;;;;;6.10;3.50;;;0.70;92.80;;;;;;4975907;28;20451;-70
2021/03/06 08:08:30;;;;;;;5.73;2.83;;;0.50;94.90;;;;;;4973137;28;20426;-70
2021/03/06 08:11:17;;;;;;;5.43;3.37;;;0.40;96.30;;;;;;4974049;28;20801;-69
2021/03/06 08:13:48;;;;;;;3.43;3.13;;;0.10;96.30;;;;;;4973997;28;20429;-70
2021/03/06 08:16:22;;;;;;;4.13;3.20;;;0.10;96.30;;;;;;4974824;28;20385;-69
2021/03/06 08:19:01;;;;;;;6.83;3.60;;;0.00;96.30;;;;;;4972186;28;21070;-71
2021/03/06 08:21:40;;;;;;;7.33;3.07;;;-0.10;96.30;;;;;;4976839;28;20425;-70
2021/03/06 08:24:15;;;;;;;4.13;2.73;;;-0.20;96.30;;;;;;4975500;28;20428;-70
2021/03/06 08:27:02;;;;;;;6.50;3.67;;;-0.40;96.30;;;;;;4976562;28;20470;-70
2021/03/06 08:29:28;;;;;;;3.70;2.70;;;-0.40;96.30;;;;;;4976840;28;20762;-70
2021/03/06 08:32:02;;;;;;;7.23;3.27;;;-0.50;96.30;;;;;;4972760;28;20439;-71
2021/03/06 08:34:33;;;;;;;6.70;3.23;;;-0.50;96.30;;;;;;4974670;28;20175;-72
2021/03/06 08:37:14;;;;;;;4.13;3.50;;;-0.40;96.30;;;;;;4974102;28;20418;-72
2021/03/06 08:39:51;;;;;;;6.73;3.10;;;-0.40;96.30;;;;;;4971945;28;20468;-73
2021/03/06 08:42:22;;;;;;;6.33;2.97;;;-0.40;96.30;;;;;;4974411;28;20434;-72
2021/03/06 08:44:49;;;;;;;9.30;3.10;;;-0.40;96.30;;;;;;4972785;28;20500;-70
2021/03/06 08:47:28;;;;;;;3.50;3.17;;;-0.20;96.30;;;;;;4971422;28;20413;-70
2021/03/06 08:49:56;;;;;;;4.87;3.20;;;-0.20;96.30;;;;;;4972057;28;20822;-70
2021/03/06 08:52:24;;;;;;;7.23;2.90;;;-0.20;96.30;;;;;;4972184;28;20430;-70
2021/03/06 08:54:49;;;;;;;3.53;3.23;;;-0.10;96.30;;;;;;4958258;28;20458;-70
2021/03/06 08:57:47;;;;;;;7.60;3.87;;;0.00;96.30;;;;;;4971135;28;20464;-70
2021/03/06 09:00:30;;;;;;;5.30;3.73;;;0.00;96.30;;;;;;4921763;28;513016;-71
2021/03/06 09:02:56;;;;;;;6.90;3.57;;;0.10;96.30;;;;;;4967564;28;20430;-70
2021/03/06 09:05:24;;;;;;;5.50;3.40;;;0.10;96.30;;;;;;4976378;28;20436;-70
2021/03/06 09:07:57;;;;;;;6.67;3.50;;;0.30;96.30;;;;;;4974292;28;20190;-72
2021/03/06 09:10:36;;;;;;;6.37;2.87;;;1.20;96.30;;;;;;4976394;28;20480;-72
2021/03/06 09:13:16;;;;;;;5.80;2.57;;;2.20;94.70;;;;;;4975829;28;20421;-72
2021/03/06 09:15:46;;;;;;;4.63;3.00;;;3.40;91.50;;;;;;4976406;28;20406;-71
2021/03/06 09:18:25;;;;;;;4.03;3.30;;;4.20;86.20;;;;;;4975724;28;20469;-70
2021/03/06 09:20:59;;;;;;;3.00;2.70;;;4.70;84.20;;;;;;4976420;28;20978;-69
2021/03/06 09:23:26;;;;;;;3.60;2.70;;;5.30;82.80;;;;;;4976015;28;20401;-70
2021/03/06 09:25:52;;;;;;;3.47;2.50;;;6.10;80.80;;;;;;4976146;28;20416;-70
2021/03/06 09:28:22;;;;;;;4.07;2.83;;;6.20;80.20;;;;;;4975701;28;20414;-70
2021/03/06 09:30:48;;;;;;;4.53;2.17;;;6.80;79.90;;;;;;4976226;28;20536;-71
2021/03/06 09:33:25;;;;;;;3.20;2.10;;;7.10;75.00;;;;;;4975317;28;20937;-70
2021/03/06 09:35:56;;;;;;;3.30;1.90;;;7.20;73.70;;;;;;4975555;28;20598;-70
2021/03/06 09:38:23;;;;;;;3.70;1.83;;;7.30;73.50;;;;;;4967333;28;20461;-70
2021/03/06 09:40:48;;;;;;;2.27;1.30;;;7.10;74.90;;;;;;4964706;28;20430;-71
2021/03/06 09:43:22;;;;;;;4.20;1.37;;;7.80;70.40;;;;;;4963749;28;20425;-71
2021/03/06 09:45:48;;;;;;;6.20;1.77;;;7.50;71.00;;;;;;4964663;28;20181;-70
2021/03/06 09:48:16;;;;;;;3.20;1.50;;;8.30;70.40;;;;;;4963787;28;20430;-71
2021/03/06 09:50:43;;;;;;;3.07;1.80;;;8.00;69.20;;;;;;4965957;28;20201;-70
2021/03/06 09:53:18;;;;;;;3.63;1.57;;;8.70;67.00;;;;;;4964445;28;20501;-70
2021/03/06 09:55:44;;;;;;;2.13;1.40;;;8.60;68.70;;;;;;4969216;28;20976;-71
2021/03/06 09:58:21;;;;;;;2.90;1.47;;;8.50;67.50;;;;;;4968328;28;20502;-70
2021/03/06 10:00:47;;;;;;;2.00;1.70;;;8.20;70.50;;;;;;4963874;28;20513;-71
2021/03/06 10:03:30;;;;;;;1.93;1.17;;;9.00;68.20;;;;;;4961806;28;20430;-70
2021/03/06 10:05:59;;;;;;;1.77;1.20;;;7.90;66.00;;;;;;4954310;28;20744;-70
2021/03/06 10:08:26;;;;;;;1.87;1.47;;;7.30;71.80;;;;;;4958355;28;20430;-70
2021/03/06 10:10:51;;;;;;;1.40;1.10;;;7.50;68.70;;;;;;4968072;28;20453;-70
2021/03/06 10:13:18;;;;;;;4.70;1.53;;;7.00;71.00;;;;;;4971265;28;20414;-70
2021/03/06 10:15:44;;;;;;;4.70;1.53;;;6.90;72.40;;;;;;4964463;28;20848;-70
2021/03/06 10:18:10;;;;;;;1.30;0.93;;;7.10;68.30;;;;;;4965964;28;20430;-70
2021/03/06 10:20:35;;;;;;;1.93;1.57;;;7.00;69.90;;;;;;4973008;28;20792;-70
2021/03/06 10:23:01;;;;;;;4.77;1.40;;;7.50;70.80;;;;;;4968024;28;20189;-70
2021/03/06 10:25:27;;;;;;;3.70;1.80;;;7.60;70.40;;;;;;4965193;28;20178;-70
2021/03/06 10:27:54;;;;;;;3.20;1.67;;;7.50;68.10;;;;;;4963798;28;20171;-70
2021/03/06 10:30:25;;;;;;;1.93;1.60;;;7.50;70.60;;;;;;4963035;28;20494;-70
2021/03/06 10:32:56;;;;;;;2.40;1.30;;;7.60;70.30;;;;;;4964279;28;20410;-70
2021/03/06 10:35:51;;;;;;;1.80;1.47;;;7.10;69.30;;;;;;4965057;28;20439;-70
2021/03/06 10:38:19;;;;;;;1.30;1.00;;;7.00;70.00;;;;;;4962335;28;20459;-70
2021/03/06 10:40:47;;;;;;;2.17;1.50;;;7.30;68.70;;;;;;4967537;28;20437;-69
2021/03/06 10:43:32;;;;;;;2.40;1.30;;;7.00;71.80;;;;;;4963905;28;20477;-70
2021/03/06 10:46:21;;;;;;;1.80;1.33;;;6.60;66.60;;;;;;4983941;28;20421;-70
2021/03/06 10:48:57;;;;;;;4.20;1.53;;;6.90;71.50;;;;;;4980523;28;20406;-70
2021/03/06 10:51:41;;;;;;;2.60;2.13;;;6.50;72.60;;;;;;4980602;28;20426;-70
2021/03/06 10:54:08;;;;;;;3.03;1.77;;;6.20;72.70;;;;;;4981257;28;20413;-70
2021/03/06 10:56:35;;;;;;;3.83;2.10;;;6.20;72.90;;;;;;4982587;28;20404;-70
2021/03/06 10:59:00;;;;;;;2.10;1.60;;;6.10;72.30;;;;;;4975562;28;20459;-68
2021/03/06 11:01:31;;;;;;;4.17;1.73;;;5.70;74.20;;;;;;4980856;28;20464;-67
2021/03/06 11:03:56;;;;;;;5.37;1.53;;;6.30;78.10;;;;;;4980253;28;20165;-69
2021/03/06 11:06:21;;;;;;;3.10;1.50;;;6.50;73.70;;;;;;4982812;28;20409;-70
2021/03/06 11:09:03;;;;;;;2.67;1.50;;;6.00;70.40;;;;;;4982319;28;20232;-69
2021/03/06 11:11:28;;;;;;;3.87;2.60;;;6.10;74.80;;;;;;4963931;28;20233;-70
2021/03/06 11:13:54;;;;;;;4.23;2.00;;;6.20;75.40;;;;;;4962234;28;20453;-70
2021/03/06 11:16:40;;;;;;;3.87;2.50;;;6.40;75.80;;;;;;4965785;28;20190;-70
2021/03/06 11:19:07;;;;;;;2.90;1.97;;;6.10;73.50;;;;;;4982337;28;20212;-71
2021/03/06 11:21:32;;;;;;;2.00;1.80;;;5.20;73.80;;;;;;4969180;28;20438;-71
2021/03/06 11:23:59;;;;;;;2.90;1.87;;;5.40;77.20;;;;;;4964969;28;20420;-72
2021/03/06 11:26:24;;;;;;;3.00;2.40;;;5.80;75.20;;;;;;4964700;28;20491;-70
2021/03/06 11:28:53;;;;;;;5.87;2.70;;;6.00;76.80;;;;;;4962447;28;20909;-71
2021/03/06 11:31:18;;;;;;;5.87;2.17;;;6.30;73.60;;;;;;4962624;28;20278;-71
2021/03/06 11:33:44;;;;;;;4.57;1.77;;;6.20;72.60;;;;;;4962315;28;20509;-71
2021/03/06 11:36:09;;;;;;;2.30;1.60;;;6.40;76.60;;;;;;4963613;28;20186;-71
2021/03/06 11:38:35;;;;;;;3.07;1.60;;;6.40;73.90;;;;;;4960076;28;20557;-71
2021/03/06 11:41:00;;;;;;;2.30;1.60;;;6.60;74.00;;;;;;4954159;29;20689;-71
2021/03/06 11:43:26;;;;;;;5.03;1.80;;;6.50;73.40;;;;;;4954107;29;20171;-69
2021/03/06 11:45:52;;;;;;;4.07;1.60;;;6.20;73.10;;;;;;4954971;28;20588;-71
2021/03/06 11:48:17;;;;;;;2.00;1.70;;;5.90;71.40;;;;;;4967163;28;20245;-70
2021/03/06 11:50:46;;;;;;;2.30;1.80;;;5.80;76.00;;;;;;4962327;28;20197;-70
2021/03/06 11:53:12;;;;;;;2.50;1.90;;;5.90;76.60;;;;;;4963368;28;20186;-71
2021/03/06 11:55:38;;;;;;;3.43;2.70;;;5.80;75.90;;;;;;4961688;28;20414;-71
2021/03/06 11:58:04;;;;;;;2.47;1.40;;;5.70;74.80;;;;;;4961838;28;20174;-70
2021/03/06 12:00:31;;;;;;;4.10;1.77;;;5.90;72.80;;;;;;4962822;28;20790;-71
2021/03/06 12:02:57;;;;;;;3.27;2.07;;;5.90;70.80;;;;;;4965111;28;20424;-71
2021/03/06 12:05:23;;;;;;;3.07;2.00;;;6.20;74.10;;;;;;4963645;28;20421;-71
2021/03/06 12:07:50;;;;;;;2.60;2.40;;;6.20;73.30;;;;;;4962642;28;20174;-64
2021/03/06 12:10:19;;;;;;;3.07;2.23;;;6.20;75.60;;;;;;4963160;28;20178;-73
2021/03/06 12:12:45;;;;;;;4.10;2.20;;;6.60;76.70;;;;;;4981991;28;20501;-74
2021/03/06 12:15:13;;;;;;;3.47;2.30;;;6.20;70.00;;;;;;4965579;28;20787;-74
2021/03/06 12:17:39;;;;;;;4.00;1.63;;;5.90;71.90;;;;;;4973460;28;20444;-74
2021/03/06 12:20:06;;;;;;;4.17;2.43;;;6.00;71.80;;;;;;4963508;28;20836;-76
2021/03/06 12:22:31;;;;;;;2.77;2.50;;;6.40;75.10;;;;;;4967533;28;20202;-76
2021/03/06 12:24:57;;;;;;;2.13;1.93;;;6.70;77.30;;;;;;4961495;28;20419;-64
2021/03/06 12:27:22;;;;;;;3.00;2.20;;;6.80;75.80;;;;;;4974565;28;20716;-64
2021/03/06 12:29:48;;;;;;;3.60;2.50;;;6.80;69.40;;;;;;4965850;28;20601;-64
2021/03/06 12:32:13;;;;;;;3.40;2.60;;;6.20;75.00;;;;;;4959204;28;20209;-63
2021/03/06 12:34:39;;;;;;;3.70;2.70;;;5.70;71.90;;;;;;4960651;28;20210;-68
2021/03/06 12:37:05;;;;;;;3.97;2.57;;;5.00;72.40;;;;;;4969715;28;20243;-66
2021/03/06 12:39:32;;;;;;;3.30;1.97;;;4.80;75.30;;;;;;4971021;28;20661;-64
2021/03/06 12:41:57;;;;;;;2.50;2.30;;;5.40;77.90;;;;;;4976657;28;20222;-63
2021/03/06 12:44:23;;;;;;;2.93;2.70;;;6.00;75.90;;;;;;4969056;28;20437;-63
2021/03/06 12:46:49;;;;;;;3.07;2.77;;;5.70;75.70;;;;;;4978520;28;20205;-63
2021/03/06 12:49:15;;;;;;;4.23;2.50;;;5.90;75.20;;;;;;4961923;28;20238;-75
2021/03/06 12:51:41;;;;;;;3.20;2.60;;;6.00;74.30;;;;;;4964747;28;20269;-75
2021/03/06 12:54:07;;;;;;;4.90;3.23;;;5.80;73.30;;;;;;4972171;28;20785;-76
2021/03/06 12:56:33;;;;;;;4.70;3.57;;;5.40;76.20;;;;;;4973361;28;20536;-75
2021/03/06 12:58:58;;;;;;;5.93;3.80;;;5.30;78.50;;;;;;4974577;28;20284;-76
2021/03/06 13:01:24;;;;;;;5.60;3.50;;;4.90;76.50;;;;;;4976118;28;20918;-75
2021/03/06 13:03:49;;;;;;;3.90;3.03;;;5.10;75.20;;;;;;4976334;28;20174;-75
2021/03/06 13:06:15;;;;;;;9.20;3.73;;;5.40;75.30;;;;;;4970763;28;20568;-75
2021/03/06 13:08:41;;;;;;;3.70;3.30;;;5.30;74.60;;;;;;4975446;28;20702;-75
2021/03/06 13:11:07;;;;;;;7.90;3.67;;;5.60;77.80;;;;;;4975987;28;20237;-75
2021/03/06 13:13:32;;;;;;;4.27;3.33;;;5.80;75.90;;;;;;4976444;28;20182;-75
2021/03/06 13:15:58;;;;;;;4.63;3.27;;;6.00;73.10;;;;;;4974831;28;20437;-75
2021/03/06 13:18:24;;;;;;;6.00;3.70;;;5.80;72.50;;;;;;4964835;28;20210;-75
2021/03/06 13:20:50;;;;;;;6.17;4.87;;;5.60;74.80;;;;;;4968924;28;20584;-74
2021/03/06 13:23:15;;;;;;;4.97;3.97;;;5.60;77.60;;;;;;4976030;28;20265;-75
2021/03/06 13:25:41;;;;;;;6.23;4.13;;;5.70;75.90;;;;;;4963285;28;20418;-74
2021/03/06 13:28:10;;;;;;;6.50;3.83;;;5.50;76.40;;;;;;4967298;28;20182;-74
2021/03/06 13:30:36;;;;;;;5.40;3.50;;;5.70;77.50;;;;;;4968778;28;20202;-75
2021/03/06 13:33:02;;;;;;;4.20;3.50;;;5.50;77.00;;;;;;4966978;28;20422;-74
2021/03/06 13:35:28;;;;;;;3.93;3.30;;;5.70;78.90;;;;;;4956667;28;20415;-74
2021/03/06 13:37:54;;;;;;;4.60;3.43;;;5.90;77.40;;;;;;4955906;28;20421;-75
2021/03/06 13:40:20;;;;;;;7.70;3.50;;;5.70;75.70;;;;;;4956231;29;21095;-75
2021/03/06 13:42:45;;;;;;;5.53;3.23;;;4.80;76.10;;;;;;4954379;29;20179;-74
2021/03/06 13:45:13;;;;;;;4.60;3.10;;;4.60;77.20;;;;;;4956587;29;20545;-75
2021/03/06 13:47:39;;;;;;;4.17;3.70;;;4.90;80.30;;;;;;4955661;28;20172;-74
2021/03/06 13:50:06;;;;;;;5.50;4.23;;;4.80;76.50;;;;;;4955488;28;20426;-74
2021/03/06 13:52:32;;;;;;;8.50;4.17;;;4.70;76.00;;;;;;4974382;28;20479;-74
2021/03/06 13:54:57;;;;;;;6.90;3.50;;;4.60;75.80;;;;;;4986669;28;21049;-74
2021/03/06 13:57:24;;;;;;;4.13;3.10;;;5.30;77.00;;;;;;4977269;28;20224;-74
2021/03/06 13:59:49;;;;;;;5.50;3.00;;;5.50;75.80;;;;;;4977622;28;20242;-74
2021/03/06 14:02:15;;;;;;;5.60;3.60;;;5.40;73.80;;;;;;4975299;28;20489;-76
2021/03/06 14:04:40;;;;;;;7.70;4.03;;;5.20;74.50;;;;;;4975146;28;20646;-76
2021/03/06 14:07:06;;;;;;;7.40;3.70;;;5.10;74.90;;;;;;4976636;28;20181;-76
2021/03/06 14:09:32;;;;;;;8.40;3.60;;;5.40;78.50;;;;;;4985519;28;20243;-76
2021/03/06 14:11:58;;;;;;;5.43;3.40;;;5.70;74.30;;;;;;4975314;28;20194;-76
2021/03/06 14:14:23;;;;;;;6.83;3.60;;;6.00;77.90;;;;;;4989628;28;20463;-76
2021/03/06 14:16:49;;;;;;;4.60;3.67;;;6.30;73.90;;;;;;4994436;28;20537;-75
2021/03/06 14:19:15;;;;;;;5.50;4.17;;;5.90;74.20;;;;;;4993869;28;20662;-75
2021/03/06 14:21:40;;;;;;;4.47;3.60;;;5.70;74.30;;;;;;4994185;28;20681;-75
2021/03/06 14:24:07;;;;;;;4.27;3.60;;;5.60;75.60;;;;;;4994472;28;20405;-75
2021/03/06 14:26:33;;;;;;;3.70;3.20;;;5.80;74.80;;;;;;4994296;28;20643;-75
2021/03/06 14:28:58;;;;;;;3.70;3.10;;;6.10;74.30;;;;;;4993792;28;20417;-75
2021/03/06 14:31:24;;;;;;;4.57;3.10;;;6.10;74.00;;;;;;4994346;28;20540;-76
2021/03/06 14:33:50;;;;;;;3.90;3.43;;;6.10;71.20;;;;;;4993723;28;20261;-75
2021/03/06 14:36:15;;;;;;;6.03;3.00;;;5.90;73.40;;;;;;4994099;28;20169;-76
2021/03/06 14:38:40;;;;;;;4.07;3.20;;;5.70;72.10;;;;;;4985020;28;20245;-76
2021/03/06 14:41:06;;;;;;;4.50;3.77;;;5.40;73.50;;;;;;4974663;28;20194;-75
2021/03/06 14:43:33;;;;;;;6.57;3.57;;;5.60;74.90;;;;;;4978139;28;20713;-77
2021/03/06 14:45:59;;;;;;;3.83;2.60;;;5.80;72.10;;;;;;4975180;28;20166;-78
2021/03/06 14:48:25;;;;;;;4.70;3.17;;;5.30;71.60;;;;;;4973336;28;20447;-78
2021/03/06 14:50:50;;;;;;;3.77;3.00;;;5.00;73.80;;;;;;4974847;28;20429;-78
2021/03/06 14:53:16;;;;;;;5.00;3.20;;;5.10;71.90;;;;;;4973770;28;20178;-77
2021/03/06 14:55:42;;;;;;;3.93;2.60;;;5.20;74.00;;;;;;4974858;28;20674;-78
2021/03/06 14:58:07;;;;;;;3.87;2.73;;;5.30;71.00;;;;;;4974285;28;20675;-77
2021/03/06 15:00:33;;;;;;;3.57;2.30;;;4.90;71.10;;;;;;4973884;28;20690;-77
2021/03/06 15:02:59;;;;;;;3.03;2.50;;;4.80;71.10;;;;;;4974755;28;20174;-77
2021/03/06 15:05:30;;;;;;;4.07;2.67;;;4.30;73.00;;;;;;4974635;28;20787;-78
2021/03/06 15:07:56;;;;;;;4.67;2.83;;;4.30;74.30;;;;;;4973368;28;20402;-78
2021/03/06 15:10:21;;;;;;;4.30;2.90;;;4.70;72.60;;;;;;4982583;28;20421;-78
2021/03/06 15:12:47;;;;;;;2.97;2.07;;;4.60;74.40;;;;;;4992816;28;20482;-77
2021/03/06 15:15:12;;;;;;;3.17;2.87;;;4.50;72.70;;;;;;4994726;28;20219;-78
2021/03/06 15:17:38;;;;;;;3.63;2.70;;;4.30;73.90;;;;;;5005319;28;20189;-78
2021/03/06 15:20:06;;;;;;;4.50;3.17;;;4.10;73.80;;;;;;5004481;28;20252;-78
2021/03/06 15:22:32;;;;;;;3.00;2.23;;;4.00;74.00;;;;;;4993879;28;20182;-78
2021/03/06 15:24:57;;;;;;;2.93;2.27;;;3.80;75.30;;;;;;4982728;28;20405;-78
2021/03/06 15:27:22;;;;;;;2.83;2.50;;;3.70;75.20;;;;;;4979298;28;20641;-77
2021/03/06 15:29:48;;;;;;;4.23;3.00;;;3.60;76.00;;;;;;4978256;28;20181;-78
2021/03/06 15:32:14;;;;;;;3.20;2.90;;;3.30;77.50;;;;;;4985397;28;20228;-78
2021/03/06 15:34:39;;;;;;;3.43;2.50;;;3.30;77.50;;;;;;4975461;28;20216;-78
2021/03/06 15:37:05;;;;;;;5.30;2.50;;;3.30;78.80;;;;;;4975426;28;20186;-78
2021/03/06 15:39:30;;;;;;;6.07;1.97;;;3.50;79.40;;;;;;4993412;28;20714;-78
2021/03/06 15:41:56;;;;;;;3.20;2.60;;;3.30;78.20;;;;;;4984989;28;20551;-77
2021/03/06 15:44:21;;;;;;;4.93;2.57;;;3.30;77.50;;;;;;4978459;28;20209;-78
2021/03/06 15:46:47;;;;;;;4.17;2.47;;;3.10;78.60;;;;;;4986527;28;20178;-79
2021/03/06 15:49:12;;;;;;;2.90;2.27;;;3.10;79.20;;;;;;4976476;28;20179;-78
2021/03/06 15:51:38;;;;;;;2.43;1.93;;;2.90;79.90;;;;;;4989478;28;20197;-78
2021/03/06 15:54:04;;;;;;;1.93;1.73;;;2.70;80.20;;;;;;4983516;28;20213;-78
2021/03/06 15:56:29;;;;;;;3.67;2.13;;;2.60;81.00;;;;;;4992171;28;20177;-78
2021/03/06 15:58:55;;;;;;;6.43;2.67;;;2.50;80.60;;;;;;4979154;28;20680;-77
2021/03/06 16:01:21;;;;;;;3.23;2.43;;;2.30;81.00;;;;;;4973527;28;20217;-78
2021/03/06 16:03:47;;;;;;;13.80;2.87;;;2.20;82.50;;;;;;4975495;28;20261;-78
2021/03/06 16:06:13;;;;;;;4.17;2.17;;;2.10;81.40;;;;;;4973706;28;20496;-77
2021/03/06 16:08:39;;;;;;;6.23;2.57;;;2.00;81.80;;;;;;4973148;28;20513;-77
2021/03/06 16:11:05;;;;;;;5.60;2.93;;;1.80;83.40;;;;;;4973936;28;20202;-77
2021/03/06 16:13:30;;;;;;;4.70;2.20;;;1.70;83.80;;;;;;4973335;28;20963;-77
2021/03/06 16:15:56;;;;;;;3.07;2.13;;;1.60;85.10;;;;;;4972787;28;20637;-77
2021/03/06 16:18:21;;;;;;;2.10;1.87;;;1.50;84.70;;;;;;4972928;28;20182;-77
2021/03/06 16:20:47;;;;;;;2.53;1.90;;;1.30;85.90;;;;;;4973464;28;20209;-77
2021/03/06 16:23:13;;;;;;;3.20;2.33;;;1.20;87.10;;;;;;4973668;28;20250;-77
2021/03/06 16:25:38;;;;;;;1.90;1.80;;;1.20;88.00;;;;;;4973428;28;20468;-77
2021/03/06 16:28:04;;;;;;;4.00;2.47;;;1.10;89.10;;;;;;4972892;28;20182;-77
2021/03/06 16:30:29;;;;;;;3.90;2.10;;;1.00;87.60;;;;;;4972189;28;20190;-77
2021/03/06 16:32:55;;;;;;;8.20;2.07;;;0.90;89.90;;;;;;4973389;28;20182;-77
2021/03/06 16:35:20;;;;;;;6.20;2.17;;;0.60;91.20;;;;;;4977293;28;20289;-77
2021/03/06 16:37:46;;;;;;;2.17;1.97;;;0.40;92.50;;;;;;4983570;28;20193;-77
2021/03/06 16:40:14;;;;;;;7.30;2.10;;;0.30;91.10;;;;;;4972226;28;20622;-77
2021/03/06 16:42:39;;;;;;;2.90;2.00;;;0.30;90.50;;;;;;4973269;28;20805;-77
2021/03/06 16:45:05;;;;;;;3.43;1.73;;;0.20;89.90;;;;;;4973420;28;20418;-78
2021/03/06 16:47:31;;;;;;;2.80;2.20;;;0.20;91.70;;;;;;4971678;28;20178;-77
2021/03/06 16:49:57;;;;;;;3.10;1.90;;;0.10;91.20;;;;;;4972548;28;21049;-77
2021/03/06 16:52:22;;;;;;;5.57;2.10;;;-0.10;94.20;;;;;;4972851;28;20454;-77
2021/03/06 16:54:48;;;;;;;3.60;1.83;;;-0.30;94.90;;;;;;4972773;28;20657;-77
2021/03/06 16:57:13;;;;;;;1.83;1.70;;;-0.40;94.70;;;;;;4986543;28;20181;-76